Blue Hill, NE

11:41 PM CDT on August 04, 2015 (GMT -0500)
Spring Ranch | | Change Station
CLOSE
Current Station
Personal Weather Station
Location: Glenvil, NE
Elevation: 1781 ft
Nearby Weather Stations

Elev 1781 ft 40.42 °N, 98.26 °W | Updated 19 seconds ago

Overcast
Overcast
66.1 °F
Feels Like 66.1 °F
N
2.3
Wind Variable Wind from SSE
Gusts 2.3 mph

Today
High -- | Low -- °F
--% Chance of Precip.
Yesterday
High -- | Low -- °F
Precip. -- in
6:34 AM 8:45 PM
Waning Gibbous, 71% visible
Pressure 29.96 in
Visibility 10.0 miles
Clouds Few 600 ft
Mostly Cloudy 12000 ft
Dew Point 66 °F
Humidity 98%
Rainfall 0.36 in
Snow Depth Not available.
UV 0 out of 12
Pollen 7.70 out of 12
Air Quality Not available.
Flu Activity Not available.
METAR KHSI 050353Z AUTO 35004KT 10SM FEW006 BKN120 19/18 A3000 RMK AO2 RAE22 SLP145 P0000 T01890183 $

More Conditions Fewer Conditions

Pressure 29.96 in
Visibility 10.0 miles
Clouds Few 600 ft
Mostly Cloudy 12000 ft
Dew Point 66 °F
Humidity 98%
Rainfall 0.36 in
Snow Depth Not available.
UV 0 out of 12
Pollen 7.70 out of 12
Air Quality Not available.
Flu Activity Not available.
METAR KHSI 050353Z AUTO 35004KT 10SM FEW006 BKN120 19/18 A3000 RMK AO2 RAE22 SLP145 P0000 T01890183 $

More Conditions Fewer Conditions

10-Day Weather Forecast

×

Almanac

Astronomy

Aug. 04, 2015 Rise Set
Actual Time
Civil Twilight
Nautical Twilight
Astronomical Twilight
Moon
Length of Visible Light
Length of Day
Tomorrow will be .
, % of the Moon is Illuminated

Today's Extremes

State Highs State Lows

Community

WunderPhotos

Upload Photos

1,844,094 photos uploaded!

WunderBlogs® & News

Nearby

Air Quality

  Air Quality AQ Index Pollutant
Not available.

Snow Depth

Station Depth Elevation

Earthquake Activity

City Distance Mag. Time & Date
Minimum magnitude displayed is 2.5.

Coastal Water Temperatures

Place Temperature

Stations

Nearby Weather Stations

Station Location Temp. Windchill Dew Point Humidity Wind Precip. Elev Updated Type